Time;durP1;ratioP1;P1;durP2;ratioP2;P2;SDS_P1;SDS_P2;PMS_P1;PMS_P2;Temp;Humidity;BMP_temperature;BMP_pressure;BME280_temperature;BME280_humidity;BME280_pressure;Samples;Min_cycle;Max_cycle;Signal;HPM_P1;HPM_P2
2023/03/18 00:01:49;;;;;;;7.18;3.70;;;;;;;;;;4996676;28;20034;-87
2023/03/18 00:04:24;;;;;;;7.43;3.72;;;11.50;99.90;;;;;;4995465;28;20022;-86
2023/03/18 00:06:52;;;;;;;9.38;3.78;;;11.50;99.90;;;;;;5005234;28;20061;-86
2023/03/18 00:09:31;;;;;;;8.57;3.00;;;10.60;99.90;;;;;;4993375;28;20026;-87
2023/03/18 00:12:02;;;;;;;7.63;3.50;;;11.60;99.90;;;;;;4992955;28;20370;-86
2023/03/18 00:14:31;;;;;;;7.07;3.30;;;11.70;99.90;;;;;;4993860;28;20042;-88
2023/03/18 00:16:56;;;;;;;7.90;3.40;;;13.70;99.90;;;;;;4994342;28;20116;-87
2023/03/18 00:19:24;;;;;;;7.20;3.38;;;;;;;;;;4995796;28;20457;-88
2023/03/18 00:21:52;;;;;;;8.07;3.42;;;11.40;99.90;;;;;;4992917;28;20026;-87
2023/03/18 00:24:22;;;;;;;6.82;3.05;;;11.40;99.90;;;;;;4990693;28;20030;-89
2023/03/18 00:26:51;;;;;;;6.75;3.10;;;;;;;;;;4990591;28;20168;-87
2023/03/18 00:29:24;;;;;;;9.65;2.97;;;11.00;99.90;;;;;;5007006;28;20035;-89
2023/03/18 00:31:52;;;;;;;6.22;2.72;;;12.80;99.90;;;;;;4992426;28;20027;-87
2023/03/18 00:34:21;;;;;;;8.95;2.80;;;11.20;99.90;;;;;;4977418;28;20042;-88
2023/03/18 00:36:49;;;;;;;6.82;2.50;;;11.30;99.90;;;;;;4990751;28;20039;-88
2023/03/18 00:39:17;;;;;;;5.68;2.30;;;13.30;99.90;;;;;;4991431;28;20090;-88
2023/03/18 00:41:51;;;;;;;6.40;3.00;;;13.40;99.90;;;;;;5007249;28;20516;-88
2023/03/18 00:44:19;;;;;;;5.28;2.50;;;11.30;99.90;;;;;;4992641;28;20026;-89
2023/03/18 00:46:45;;;;;;;4.68;2.45;;;11.10;99.90;;;;;;5001292;28;20041;-88
2023/03/18 00:49:16;;;;;;;8.73;2.97;;;8.90;99.90;;;;;;4994026;28;20081;-86
2023/03/18 00:51:45;;;;;;;7.25;3.10;;;12.10;99.90;;;;;;4991917;28;20034;-89
2023/03/18 00:54:17;;;;;;;9.77;3.00;;;10.00;99.90;;;;;;4996681;28;20434;-87
2023/03/18 00:56:43;;;;;;;5.55;2.72;;;12.40;99.90;;;;;;4996474;28;20145;-88
2023/03/18 00:59:09;;;;;;;5.93;2.75;;;;;;;;;;4998780;28;20030;-86
2023/03/18 01:01:35;;;;;;;7.90;2.95;;;11.10;99.90;;;;;;4994710;28;20077;-88
2023/03/18 01:04:01;;;;;;;6.90;3.42;;;13.40;99.90;;;;;;4992483;28;20023;-89
2023/03/18 01:06:30;;;;;;;6.68;2.70;;;11.50;99.90;;;;;;4988784;28;20587;-87
2023/03/18 01:08:57;;;;;;;5.85;2.40;;;11.10;99.90;;;;;;4995551;28;20039;-85
2023/03/18 01:11:24;;;;;;;9.13;2.53;;;12.90;99.90;;;;;;5005203;28;20040;-87
2023/03/18 01:13:50;;;;;;;4.68;2.35;;;12.60;99.90;;;;;;4994740;28;20041;-86
2023/03/18 01:16:16;;;;;;;7.55;3.08;;;11.80;99.90;;;;;;5001161;28;20048;-87
2023/03/18 01:18:42;;;;;;;6.13;2.38;;;;;;;;;;5020200;28;20046;-89
2023/03/18 01:21:10;;;;;;;5.18;3.00;;;12.50;99.90;;;;;;4995462;28;20487;-83
2023/03/18 01:23:37;;;;;;;7.22;2.65;;;11.10;99.90;;;;;;4995060;28;20034;-85
2023/03/18 01:26:03;;;;;;;5.30;2.60;;;11.40;99.90;;;;;;4994768;28;20014;-87
2023/03/18 01:28:29;;;;;;;7.05;3.35;;;11.10;99.90;;;;;;4997096;28;20034;-87
2023/03/18 01:30:56;;;;;;;5.75;2.88;;;13.60;99.90;;;;;;4997692;28;20035;-85
2023/03/18 01:33:22;;;;;;;10.32;2.78;;;12.80;99.90;;;;;;4990758;28;20069;-88
2023/03/18 01:35:54;;;;;;;5.43;2.50;;;10.90;99.90;;;;;;4996512;28;20030;-89
2023/03/18 01:38:20;;;;;;;5.30;2.25;;;11.40;99.90;;;;;;4996507;28;20026;-88
2023/03/18 01:40:46;;;;;;;7.35;3.38;;;11.10;99.90;;;;;;4999546;28;20037;-87
2023/03/18 01:43:25;;;;;;;7.53;3.05;;;11.10;99.90;;;;;;4991563;28;20022;-88
2023/03/18 01:45:57;;;;;;;5.88;2.80;;;11.20;99.90;;;;;;5015026;28;20062;-88
2023/03/18 01:48:25;;;;;;;4.40;2.35;;;11.90;99.90;;;;;;5019732;28;20036;-89
2023/03/18 01:50:58;;;;;;;7.40;2.97;;;11.40;99.90;;;;;;5008767;28;20057;-89
2023/03/18 01:53:27;;;;;;;7.10;2.80;;;11.20;99.90;;;;;;5021172;28;20017;-89
2023/03/18 01:55:56;;;;;;;7.18;2.70;;;13.70;99.90;;;;;;5007338;28;20058;-87
2023/03/18 01:58:26;;;;;;;8.02;3.05;;;11.30;99.90;;;;;;5010081;28;20018;-87
2023/03/18 02:00:59;;;;;;;7.53;3.38;;;11.20;99.90;;;;;;4995538;28;20034;-86
2023/03/18 02:03:26;;;;;;;8.63;3.47;;;12.40;99.90;;;;;;4991506;28;20061;-88
2023/03/18 02:05:52;;;;;;;6.88;3.90;;;12.50;99.90;;;;;;4992926;28;20022;-86
2023/03/18 02:08:18;;;;;;;6.47;3.10;;;11.30;99.90;;;;;;5011019;28;20038;-88
2023/03/18 02:10:45;;;;;;;7.18;3.00;;;11.30;99.90;;;;;;5017966;28;20038;-89
2023/03/18 02:13:13;;;;;;;5.03;2.90;;;12.60;99.90;;;;;;5015704;28;20101;-87
2023/03/18 02:15:57;;;;;;;5.13;2.72;;;13.60;99.90;;;;;;5000668;28;20030;-88
2023/03/18 02:18:29;;;;;;;6.07;2.58;;;11.20;99.90;;;;;;4999465;28;20027;-89
2023/03/18 02:21:16;;;;;;;7.57;2.50;;;12.70;99.90;;;;;;4992689;28;20030;-87
2023/03/18 02:23:42;;;;;;;11.38;4.28;;;;;;;;;;4990084;28;20018;-89
2023/03/18 02:26:27;;;;;;;6.28;2.75;;;11.10;99.90;;;;;;4994791;28;20096;-88
2023/03/18 02:28:57;;;;;;;7.85;2.50;;;11.10;99.90;;;;;;4999158;28;20019;-87
2023/03/18 02:31:23;;;;;;;6.32;2.38;;;11.00;99.90;;;;;;4995570;28;20042;-87
2023/03/18 02:33:49;;;;;;;5.35;2.30;;;;;;;;;;4989378;28;20038;-87
2023/03/18 02:36:23;;;;;;;7.45;2.55;;;10.90;99.90;;;;;;5010280;28;20030;-88
2023/03/18 02:38:50;;;;;;;14.10;7.18;;;;;;;;;;4995645;28;20032;-89
2023/03/18 02:41:19;;;;;;;7.60;2.80;;;10.80;99.90;;;;;;4997589;28;20023;-89
2023/03/18 02:43:45;;;;;;;5.55;2.63;;;12.40;99.90;;;;;;4999125;28;20066;-86
2023/03/18 02:46:29;;;;;;;6.88;2.63;;;10.80;99.90;;;;;;4993660;28;20026;-89
2023/03/18 02:48:57;;;;;;;7.10;2.85;;;11.00;99.90;;;;;;4995792;28;20142;-88
2023/03/18 02:51:24;;;;;;;3.92;2.45;;;13.90;99.90;;;;;;4996164;28;20022;-84
2023/03/18 02:53:54;;;;;;;6.80;2.75;;;10.80;99.90;;;;;;4995870;28;20030;-89
2023/03/18 02:56:20;;;;;;;6.28;2.08;;;;;;;;;;4996014;28;20038;-86
2023/03/18 02:58:46;;;;;;;5.55;2.50;;;10.80;99.90;;;;;;4995168;28;20117;-88
2023/03/18 03:01:12;;;;;;;5.90;2.50;;;13.30;99.90;;;;;;5010938;28;20286;-88
2023/03/18 03:03:38;;;;;;;5.40;2.50;;;;;;;;;;5006493;28;20023;-89
2023/03/18 03:06:05;;;;;;;6.55;2.40;;;10.80;99.90;;;;;;4998205;28;20114;-86
2023/03/18 03:08:30;;;;;;;6.00;2.47;;;10.80;99.90;;;;;;4992362;28;20650;-88
2023/03/18 03:10:56;;;;;;;5.30;2.30;;;11.90;99.90;;;;;;5000848;28;20030;-89
2023/03/18 03:13:23;;;;;;;5.28;1.98;;;13.10;99.90;;;;;;4994191;28;20027;-88
2023/03/18 03:15:49;;;;;;;9.05;2.30;;;10.70;99.90;;;;;;4992120;28;20101;-85
2023/03/18 03:18:15;;;;;;;8.68;2.70;;;;;;;;;;4992532;28;20038;-87
2023/03/18 03:20:42;;;;;;;4.30;1.98;;;;;;;;;;4991774;28;20122;-89
2023/03/18 03:23:11;;;;;;;6.28;2.72;;;10.60;99.90;;;;;;4999792;28;20018;-86
2023/03/18 03:25:37;;;;;;;4.57;2.20;;;12.50;99.90;;;;;;4994181;28;20090;-88
2023/03/18 03:28:04;;;;;;;4.95;2.13;;;10.60;99.90;;;;;;4995196;28;20019;-87
2023/03/18 03:30:30;;;;;;;4.78;2.20;;;12.70;99.90;;;;;;4991017;28;20034;-87
2023/03/18 03:32:57;;;;;;;5.28;2.08;;;;;;;;;;5010201;28;20479;-88
2023/03/18 03:35:23;;;;;;;5.78;2.00;;;10.60;99.90;;;;;;4998000;28;20034;-88
2023/03/18 03:37:49;;;;;;;5.35;1.73;;;10.60;99.90;;;;;;5000763;28;20061;-87
2023/03/18 03:40:17;;;;;;;4.85;1.85;;;10.60;99.90;;;;;;4997290;28;20030;-89
2023/03/18 03:42:44;;;;;;;3.60;2.00;;;10.60;99.90;;;;;;4996787;28;20026;-88
2023/03/18 03:45:11;;;;;;;5.88;2.60;;;10.70;99.90;;;;;;5011360;28;20030;-87
2023/03/18 03:47:37;;;;;;;5.82;2.55;;;10.90;99.90;;;;;;5012486;28;20022;-89
2023/03/18 03:50:04;;;;;;;6.35;2.08;;;12.60;99.90;;;;;;4993358;28;20069;-88
2023/03/18 03:52:30;;;;;;;7.45;3.42;;;9.70;99.90;;;;;;4994423;28;20118;-89
2023/03/18 03:54:57;;;;;;;5.30;2.10;;;11.30;99.90;;;;;;4993924;28;20030;-87
2023/03/18 03:57:23;;;;;;;5.00;2.20;;;10.80;99.90;;;;;;4989556;28;20034;-88
2023/03/18 03:59:49;;;;;;;5.25;2.30;;;10.70;99.90;;;;;;4988228;28;20034;-88
2023/03/18 04:02:16;;;;;;;4.82;2.05;;;10.90;99.90;;;;;;4987872;28;20023;-88
2023/03/18 04:04:44;;;;;;;6.75;1.85;;;11.10;99.90;;;;;;4987300;28;20031;-87
2023/03/18 04:07:10;;;;;;;6.50;2.60;;;12.40;99.90;;;;;;5011349;28;20033;-88
2023/03/18 04:09:36;;;;;;;4.65;1.77;;;;;;;;;;4994054;28;20571;-86
2023/03/18 04:12:03;;;;;;;4.25;1.80;;;10.80;99.90;;;;;;5011884;28;20034;-87
2023/03/18 04:14:28;;;;;;;6.10;1.85;;;10.80;99.90;;;;;;4990003;28;20050;-88
2023/03/18 04:16:56;;;;;;;3.30;1.63;;;;;;;;;;4993896;28;20037;-88
2023/03/18 04:19:24;;;;;;;6.40;2.35;;;10.80;99.90;;;;;;5022092;28;20030;-89
2023/03/18 04:21:50;;;;;;;4.70;1.88;;;10.90;99.90;;;;;;5004508;28;20143;-87
2023/03/18 04:24:16;;;;;;;5.15;1.90;;;;;;;;;;4994298;28;20049;-87
2023/03/18 04:26:42;;;;;;;3.92;2.05;;;10.80;99.90;;;;;;4989698;28;20061;-85
2023/03/18 04:29:08;;;;;;;3.47;1.58;;;13.50;99.90;;;;;;5003002;28;20408;-87
2023/03/18 04:31:34;;;;;;;3.83;1.83;;;;;;;;;;4975299;28;20030;-85
2023/03/18 04:34:00;;;;;;;3.55;1.75;;;10.70;99.90;;;;;;4997545;28;21479;-87
2023/03/18 04:36:27;;;;;;;4.78;1.90;;;;;;;;;;4996976;28;20034;-87
2023/03/18 04:38:53;;;;;;;3.63;1.58;;;11.20;99.90;;;;;;4998367;28;20073;-89
2023/03/18 04:41:19;;;;;;;4.68;1.88;;;12.70;99.90;;;;;;4992366;28;20018;-88
2023/03/18 04:43:45;;;;;;;3.92;1.88;;;;;;;;;;4990032;28;20549;-89
2023/03/18 04:46:11;;;;;;;4.85;1.60;;;10.60;99.90;;;;;;4996574;28;20030;-88
2023/03/18 04:48:37;;;;;;;4.60;1.75;;;10.60;99.90;;;;;;4995991;28;20053;-89
2023/03/18 04:51:04;;;;;;;5.05;1.67;;;11.60;99.90;;;;;;4997907;28;20098;-87
2023/03/18 04:53:30;;;;;;;8.45;2.15;;;10.60;99.90;;;;;;4995989;28;20106;-85
2023/03/18 04:55:56;;;;;;;5.05;1.50;;;10.00;99.90;;;;;;5011776;28;20049;-88
2023/03/18 04:58:22;;;;;;;4.28;1.63;;;12.50;99.90;;;;;;4993920;28;20035;-89
2023/03/18 05:00:48;;;;;;;3.95;1.73;;;10.80;99.90;;;;;;4994614;28;20043;-88
2023/03/18 05:03:15;;;;;;;3.50;1.60;;;;;;;;;;5075125;22;20046;-78
2023/03/18 05:05:48;;;;;;;5.40;1.95;;;;;;;;;;5008160;28;20089;-78
2023/03/18 05:08:17;;;;;;;4.13;1.73;;;;;;;;;;5010499;28;20058;-78
2023/03/18 05:10:43;;;;;;;4.95;1.80;;;;;;;;;;4999356;28;20113;-78
2023/03/18 05:13:10;;;;;;;4.82;1.80;;;;;;;;;;4995629;28;20034;-78
2023/03/18 05:15:38;;;;;;;4.55;1.75;;;;;;;;;;4990635;28;20035;-77
2023/03/18 05:18:05;;;;;;;3.90;1.70;;;;;;;;;;4990935;28;20466;-78
2023/03/18 05:20:55;;;;;;;4.25;1.80;;;10.20;99.90;;;;;;4988573;28;20039;-77
2023/03/18 05:23:24;;;;;;;5.20;1.60;;;10.20;99.90;;;;;;4994086;28;20475;-79
2023/03/18 05:25:50;;;;;;;4.20;1.73;;;;;;;;;;4995677;28;20026;-77
2023/03/18 05:28:31;;;;;;;3.47;1.70;;;10.10;99.90;;;;;;4997382;28;20053;-77
2023/03/18 05:31:00;;;;;;;4.60;1.65;;;10.10;99.90;;;;;;4993389;28;20049;-81
2023/03/18 05:33:27;;;;;;;6.55;1.77;;;;;;;;;;4984485;28;20424;-79
2023/03/18 05:35:53;;;;;;;3.53;1.65;;;;;;;;;;5006556;28;20401;-79
2023/03/18 05:38:25;;;;;;;3.67;1.50;;;10.00;99.90;;;;;;4991856;28;20030;-78
2023/03/18 05:40:57;;;;;;;4.93;1.52;;;10.00;99.90;;;;;;4993959;28;20400;-78
2023/03/18 05:43:23;;;;;;;5.45;1.58;;;;;;;;;;4993628;28;20019;-78
2023/03/18 05:45:50;;;;;;;5.60;1.85;;;10.10;99.90;;;;;;5004757;28;20038;-77
2023/03/18 05:48:23;;;;;;;5.30;1.88;;;10.00;99.90;;;;;;4993811;28;20030;-79
2023/03/18 05:50:50;;;;;;;5.50;1.80;;;;;;;;;;4992270;28;20057;-78
2023/03/18 05:53:17;;;;;;;4.63;1.63;;;;;;;;;;4991046;28;20061;-78
2023/03/18 05:55:44;;;;;;;8.43;2.10;;;10.10;99.90;;;;;;4999779;28;20602;-78
2023/03/18 05:58:17;;;;;;;6.38;1.98;;;;;;;;;;5004904;28;20112;-78
2023/03/18 06:01:09;;;;;;;4.75;1.75;;;10.10;99.90;;;;;;5010340;28;20037;-79
2023/03/18 06:03:39;;;;;;;5.78;2.25;;;;;;;;;;5003081;28;20041;-79
2023/03/18 06:06:17;;;;;;;4.38;1.75;;;10.00;99.90;;;;;;5015194;28;20424;-80
2023/03/18 06:08:44;;;;;;;3.15;1.50;;;;;;;;;;4995242;28;20022;-78
2023/03/18 06:11:30;;;;;;;3.33;1.70;;;10.10;99.90;;;;;;4995954;28;20018;-77
2023/03/18 06:13:59;;;;;;;3.50;1.60;;;;;;;;;;4992680;28;20587;-79
2023/03/18 06:16:27;;;;;;;4.53;1.48;;;10.10;99.90;;;;;;4995028;28;20034;-79
2023/03/18 06:18:58;;;;;;;3.58;1.55;;;10.20;99.90;;;;;;4994008;28;20046;-79
2023/03/18 06:21:30;;;;;;;5.55;1.80;;;;;;;;;;4987246;28;20493;-77
2023/03/18 06:24:13;;;;;;;3.65;1.80;;;10.10;99.90;;;;;;4998476;28;20538;-78
2023/03/18 06:26:48;;;;;;;7.93;1.50;;;10.50;99.90;;;;;;4992180;28;20027;-80
2023/03/18 06:29:17;;;;;;;4.35;1.73;;;;;;;;;;4974528;28;20045;-78
2023/03/18 06:31:48;;;;;;;4.00;1.52;;;10.20;99.90;;;;;;5009756;28;20046;-78
2023/03/18 06:34:20;;;;;;;4.20;1.77;;;10.30;99.90;;;;;;4984197;28;20074;-78
2023/03/18 06:37:18;;;;;;;6.80;2.05;;;10.30;99.90;;;;;;4989182;28;20030;-78
2023/03/18 06:40:09;;;;;;;4.72;1.65;;;11.20;99.90;;;;;;5018961;28;20030;-77
2023/03/18 06:42:36;;;;;;;4.95;1.42;;;;;;;;;;5003623;28;20026;-80
2023/03/18 06:45:29;;;;;;;3.20;1.65;;;10.50;99.90;;;;;;5008464;28;20089;-79
2023/03/18 06:48:21;;;;;;;4.10;1.60;;;10.50;99.90;;;;;;5023800;28;20026;-78
2023/03/18 06:50:56;;;;;;;6.93;1.80;;;9.30;99.90;;;;;;5018726;28;20114;-79
2023/03/18 06:53:27;;;;;;;4.43;2.03;;;;;;;;;;4982641;28;20052;-77
2023/03/18 06:56:15;;;;;;;6.38;2.20;;;9.70;99.90;;;;;;5003699;28;20054;-78
2023/03/18 06:58:44;;;;;;;4.70;1.77;;;10.70;99.90;;;;;;4999378;28;20035;-79
2023/03/18 07:01:40;;;;;;;5.03;1.73;;;10.40;99.90;;;;;;4990603;28;20054;-79
2023/03/18 07:04:14;;;;;;;5.93;1.60;;;10.70;99.90;;;;;;4993153;28;20121;-78
2023/03/18 07:06:41;;;;;;;6.68;3.30;;;10.60;99.90;;;;;;4974090;28;20050;-79
2023/03/18 07:09:10;;;;;;;5.90;1.95;;;9.40;99.90;;;;;;4998492;28;20033;-78
2023/03/18 07:11:44;;;;;;;3.97;1.85;;;;;;;;;;4985869;28;20034;-79
2023/03/18 07:14:46;;;;;;;5.75;2.00;;;10.80;99.90;;;;;;5016362;28;20034;-80
2023/03/18 07:17:17;;;;;;;9.55;2.70;;;10.90;99.90;;;;;;4993824;28;20504;-80
2023/03/18 07:19:52;;;;;;;8.13;2.80;;;11.20;99.90;;;;;;4993030;28;20054;-80
2023/03/18 07:22:49;;;;;;;5.97;1.70;;;10.90;99.90;;;;;;5003982;28;20030;-80
2023/03/18 07:25:18;;;;;;;4.88;1.83;;;;;;;;;;4992029;28;20038;-77
2023/03/18 07:28:15;;;;;;;5.40;2.58;;;11.00;99.90;;;;;;4972561;28;20069;-79
2023/03/18 07:30:50;;;;;;;4.65;1.70;;;11.10;99.90;;;;;;4997871;28;20038;-78
2023/03/18 07:34:11;;;;;;;6.40;2.05;;;10.80;99.90;;;;;;5009316;28;20031;-79
2023/03/18 07:40:30;;;;;;;3.92;1.80;;;10.80;99.90;;;;;;4996505;28;20030;-80
2023/03/18 07:43:38;;;;;;;4.85;1.88;;;11.30;99.90;;;;;;4991458;28;20415;-79
2023/03/18 07:46:50;;;;;;;4.55;1.92;;;11.10;99.90;;;;;;4996629;28;20023;-80
2023/03/18 07:50:11;;;;;;;4.95;1.60;;;11.30;99.90;;;;;;4971449;28;20027;-80
2023/03/18 07:53:07;;;;;;;3.28;1.60;;;11.00;99.90;;;;;;4993191;28;20097;-79
2023/03/18 07:59:23;;;;;;;3.47;1.20;;;10.40;99.90;;;;;;4959982;28;20071;-79
2023/03/18 08:03:04;;;;;;;3.75;1.70;;;11.50;99.90;;;;;;4988180;28;20042;-79
2023/03/18 08:06:03;;;;;;;;;;;11.70;99.90;;;;;;4976940;28;20062;-78
2023/03/18 08:11:40;;;;;;;3.75;1.27;;;11.80;99.90;;;;;;4973938;28;20118;-77
2023/03/18 08:14:50;;;;;;;7.43;1.60;;;11.80;99.90;;;;;;4953956;28;20051;-79
2023/03/18 08:20:57;;;;;;;3.67;1.52;;;11.90;99.90;;;;;;4911158;29;20480;-80
2023/03/18 08:39:57;;;;;;;3.40;1.23;;;12.30;98.70;;;;;;5015048;28;20084;-78
2023/03/18 08:42:45;;;;;;;3.92;1.25;;;12.60;98.90;;;;;;5009281;28;20133;-79
2023/03/18 08:45:36;;;;;;;4.30;1.70;;;12.50;98.80;;;;;;4988326;28;20038;-78
2023/03/18 08:48:40;;;;;;;5.68;1.58;;;12.50;98.50;;;;;;4994663;28;20042;-80
2023/03/18 08:51:41;;;;;;;2.22;1.33;;;12.60;98.80;;;;;;4995145;28;20037;-78
2023/03/18 08:54:45;;;;;;;6.75;1.95;;;12.70;98.50;;;;;;4965300;28;20042;-77
2023/03/18 08:57:49;;;;;;;5.03;1.60;;;12.70;98.80;;;;;;5001808;28;20023;-78
2023/03/18 09:01:01;;;;;;;6.45;1.60;;;12.70;98.50;;;;;;4991921;28;20030;-79
2023/03/18 09:04:05;;;;;;;5.07;1.52;;;12.70;98.50;;;;;;4991022;28;20034;-79
2023/03/18 09:07:09;;;;;;;3.30;1.65;;;12.70;98.50;;;;;;5012542;28;20026;-78
2023/03/18 09:10:11;;;;;;;5.45;1.73;;;12.60;98.90;;;;;;5010193;28;20094;-78
2023/03/18 09:17:00;;;;;;;3.13;1.42;;;12.00;97.60;;;;;;4995148;28;20049;-79
2023/03/18 09:22:50;;;;;;;7.47;1.92;;;11.60;97.70;;;;;;5124776;22;20045;-80
2023/03/18 09:25:23;;;;;;;2.92;1.50;;;12.90;98.10;;;;;;5028334;28;20109;-79
2023/03/18 09:38:51;;;;;;;4.43;1.58;;;13.20;97.10;;;;;;5281717;22;20088;-78
2023/03/18 09:44:38;;;;;;;5.47;1.60;;;13.30;96.70;;;;;;4989112;28;20055;-81
2023/03/18 09:47:46;;;;;;;4.45;1.52;;;13.80;96.50;;;;;;5020360;28;20041;-81
2023/03/18 11:00:00;;;;;;;4.90;1.55;;;15.80;92.30;;;;;;5005413;28;20053;-86
2023/03/18 11:25:51;;;;;;;3.55;1.42;;;15.80;91.90;;;;;;4989745;28;20524;-88
2023/03/18 11:28:28;;;;;;;4.82;1.63;;;15.70;92.30;;;;;;4998451;28;20026;-89
2023/03/18 11:30:59;;;;;;;4.90;1.90;;;15.90;91.90;;;;;;5001225;28;20033;-87
2023/03/18 11:33:30;;;;;;;6.38;1.75;;;16.70;91.90;;;;;;4999326;28;20045;-88
2023/03/18 11:35:58;;;;;;;4.78;1.70;;;16.40;91.50;;;;;;4996702;28;20034;-90
2023/03/18 11:38:33;;;;;;;5.60;2.47;;;16.50;91.40;;;;;;4993224;28;20175;-88
2023/03/18 11:41:12;;;;;;;5.13;1.75;;;16.70;91.10;;;;;;4986522;28;20113;-91
2023/03/18 11:43:38;;;;;;;4.45;1.52;;;17.00;91.10;;;;;;4990007;28;20113;-86
2023/03/18 11:46:11;;;;;;;7.95;2.15;;;17.40;90.40;;;;;;4991466;28;20042;-88
2023/03/18 11:48:41;;;;;;;4.45;1.65;;;17.40;90.10;;;;;;4991383;28;20052;-88
2023/03/18 11:51:30;;;;;;;;;;;18.00;90.50;;;;;;4992622;28;20023;-89
2023/03/18 11:54:13;;;;;;;6.18;1.77;;;16.70;90.10;;;;;;4992100;28;19996;-88
2023/03/18 11:57:10;;;;;;;5.72;2.20;;;16.90;90.80;;;;;;4988326;28;20032;-89
2023/03/18 12:00:07;;;;;;;3.85;2.10;;;16.30;91.30;;;;;;4990495;28;20034;-86
2023/03/18 12:02:55;;;;;;;6.20;1.90;;;16.30;91.20;;;;;;4989532;28;20041;-89
2023/03/18 12:06:03;;;;;;;4.95;2.15;;;16.30;91.20;;;;;;4990264;28;20518;-89
2023/03/18 12:08:49;;;;;;;5.57;2.10;;;16.40;90.90;;;;;;4938613;28;20490;-87
2023/03/18 12:11:32;;;;;;;10.05;1.95;;;16.50;90.90;;;;;;4990313;28;20673;-87
2023/03/18 12:13:57;;;;;;;5.65;1.83;;;16.40;91.20;;;;;;4970704;28;20589;-89
2023/03/18 12:17:05;;;;;;;3.22;2.00;;;16.40;91.80;;;;;;4992602;28;20038;-88
2023/03/18 12:19:53;;;;;;;5.30;1.75;;;16.70;91.20;;;;;;4952829;28;20125;-88
2023/03/18 12:22:31;;;;;;;3.95;1.73;;;16.90;90.70;;;;;;4985195;28;20018;-89
2023/03/18 12:25:33;;;;;;;7.78;1.70;;;17.10;90.60;;;;;;4995174;28;20061;-88
2023/03/18 12:28:36;;;;;;;7.28;1.67;;;17.20;90.30;;;;;;4993996;28;20026;-88
2023/03/18 12:31:05;;;;;;;8.23;1.70;;;17.30;90.20;;;;;;4989372;28;20056;-89
2023/03/18 12:34:03;;;;;;;8.70;3.03;;;17.50;90.20;;;;;;4988997;28;20043;-89
2023/03/18 12:36:38;;;;;;;6.07;1.77;;;17.70;88.70;;;;;;4945918;28;20869;-87
2023/03/18 12:39:51;;;;;;;5.32;2.20;;;17.60;88.90;;;;;;4984986;28;20085;-89
2023/03/18 12:42:18;;;;;;;4.22;1.60;;;17.70;89.30;;;;;;4987475;28;20492;-88
2023/03/18 12:45:09;;;;;;;4.55;1.63;;;17.90;90.30;;;;;;4988654;28;20057;-88
2023/03/18 12:47:39;;;;;;;;;;;17.60;88.60;;;;;;4988356;28;20042;-89
2023/03/18 12:50:33;;;;;;;3.65;1.60;;;17.50;89.60;;;;;;4982847;28;19910;-88
2023/03/18 12:53:02;;;;;;;4.03;1.35;;;17.60;89.00;;;;;;4994041;28;20504;-89
2023/03/18 12:55:42;;;;;;;5.85;2.00;;;19.20;89.70;;;;;;4989204;28;20056;-88
2023/03/18 12:58:21;;;;;;;5.70;1.67;;;17.60;89.90;;;;;;4989487;28;20105;-89
2023/03/18 13:00:57;;;;;;;6.35;1.58;;;17.70;90.00;;;;;;4990101;28;20129;-90
2023/03/18 13:03:33;;;;;;;5.43;1.70;;;17.80;89.80;;;;;;4984595;28;20440;-90
2023/03/18 13:06:20;;;;;;;3.33;1.27;;;18.00;89.50;;;;;;4991507;28;20026;-90
2023/03/18 13:09:10;;;;;;;5.35;1.92;;;18.00;88.10;;;;;;5005264;28;20035;-89
2023/03/18 13:11:49;;;;;;;6.47;1.38;;;17.70;89.10;;;;;;4989449;28;20596;-88
2023/03/18 13:14:48;;;;;;;4.60;1.63;;;17.70;89.90;;;;;;5006655;28;20079;-90
2023/03/18 13:17:37;;;;;;;4.00;1.80;;;17.60;90.00;;;;;;5011181;28;20054;-88
2023/03/18 13:20:12;;;;;;;6.10;1.90;;;17.80;89.90;;;;;;5007179;28;20034;-88
2023/03/18 13:22:45;;;;;;;5.15;1.80;;;18.00;88.50;;;;;;5016568;28;20018;-87
2023/03/18 13:25:39;;;;;;;5.70;1.65;;;18.20;88.20;;;;;;5001355;28;20037;-86
2023/03/18 13:28:32;;;;;;;6.85;2.45;;;18.30;87.80;;;;;;5001355;28;20599;-88
2023/03/18 13:31:28;;;;;;;4.07;1.95;;;18.50;89.30;;;;;;5009874;28;20054;-88
2023/03/18 13:34:15;;;;;;;4.40;1.85;;;18.60;87.70;;;;;;5007859;28;20030;-88
2023/03/18 13:37:11;;;;;;;6.15;1.70;;;18.70;87.40;;;;;;5005031;28;20035;-88
2023/03/18 13:40:08;;;;;;;7.43;2.17;;;18.50;87.20;;;;;;4997166;28;20042;-87
2023/03/18 13:42:37;;;;;;;5.63;1.55;;;18.70;86.90;;;;;;5006929;28;20034;-87
2023/03/18 13:45:17;;;;;;;4.45;1.75;;;18.60;86.00;;;;;;5009611;28;20033;-88
2023/03/18 13:47:43;;;;;;;7.43;2.50;;;18.70;85.80;;;;;;5007259;28;20018;-86
2023/03/18 13:50:18;;;;;;;2.78;1.27;;;18.70;86.00;;;;;;5002783;28;20042;-85
2023/03/18 13:52:45;;;;;;;4.05;1.75;;;18.70;86.50;;;;;;5006829;28;20034;-85
2023/03/18 13:55:28;;;;;;;4.97;1.77;;;18.60;87.00;;;;;;5007591;28;20701;-87
2023/03/18 13:58:08;;;;;;;3.83;1.60;;;18.50;86.60;;;;;;4989705;28;20042;-86
2023/03/18 14:00:45;;;;;;;3.10;1.50;;;18.50;87.40;;;;;;4989596;28;20038;-89
2023/03/18 14:03:25;;;;;;;6.25;1.80;;;18.70;86.80;;;;;;4993064;28;20026;-87
2023/03/18 14:06:17;;;;;;;4.72;1.58;;;18.90;86.50;;;;;;4972164;28;20035;-85
2023/03/18 14:08:47;;;;;;;6.07;2.03;;;18.90;86.30;;;;;;4977160;28;20042;-87
2023/03/18 14:11:15;;;;;;;4.25;1.33;;;18.70;86.40;;;;;;4993392;28;20030;-89
2023/03/18 14:13:41;;;;;;;4.70;1.77;;;18.50;87.20;;;;;;4989402;28;20044;-86
2023/03/18 14:16:09;;;;;;;5.38;1.48;;;18.50;87.90;;;;;;4990401;28;20046;-88
2023/03/18 14:18:36;;;;;;;3.45;1.60;;;18.00;88.60;;;;;;4992655;28;20034;-87
2023/03/18 14:21:04;;;;;;;6.00;1.60;;;17.90;88.80;;;;;;4987576;28;20034;-88
2023/03/18 14:23:59;;;;;;;5.47;1.77;;;17.80;89.10;;;;;;4987319;28;20509;-88
2023/03/18 14:26:25;;;;;;;4.57;1.55;;;18.00;89.30;;;;;;4990547;28;20042;-87
2023/03/18 14:29:03;;;;;;;7.20;1.88;;;17.90;89.50;;;;;;4983912;28;20542;-88
2023/03/18 14:31:33;;;;;;;5.88;2.00;;;17.80;90.10;;;;;;4984802;28;20069;-88
2023/03/18 14:34:09;;;;;;;6.80;1.77;;;17.80;90.40;;;;;;4989636;28;20030;-87
2023/03/18 14:37:13;;;;;;;6.40;2.10;;;17.70;90.30;;;;;;4993200;28;20119;-90
2023/03/18 14:39:40;;;;;;;3.35;1.70;;;18.00;90.20;;;;;;4986960;28;20053;-89
2023/03/18 14:42:22;;;;;;;5.22;2.30;;;18.20;89.90;;;;;;4985919;28;20179;-89
2023/03/18 14:44:53;;;;;;;6.97;1.80;;;18.20;89.10;;;;;;4987533;28;20026;-91
2023/03/18 14:48:03;;;;;;;3.85;1.40;;;18.30;89.90;;;;;;4982588;28;20023;-90
2023/03/18 14:50:36;;;;;;;5.53;1.80;;;18.40;89.60;;;;;;4960641;28;20038;-90
2023/03/18 14:53:09;;;;;;;5.55;1.70;;;18.60;89.40;;;;;;5002684;28;20266;-89
2023/03/18 14:55:36;;;;;;;2.78;1.55;;;18.80;88.20;;;;;;4992113;28;20041;-86
2023/03/18 14:58:03;;;;;;;5.65;1.90;;;18.70;88.50;;;;;;4994376;28;20026;-86
2023/03/18 15:00:36;;;;;;;5.18;1.48;;;18.50;89.40;;;;;;4990433;28;20030;-89
2023/03/18 15:03:07;;;;;;;4.95;1.83;;;18.50;88.80;;;;;;4984931;28;20034;-88
2023/03/18 15:05:40;;;;;;;4.18;1.70;;;18.40;89.60;;;;;;4985213;28;20036;-88
2023/03/18 15:08:14;;;;;;;4.28;1.60;;;18.70;90.00;;;;;;4983103;28;20105;-90
2023/03/18 15:10:41;;;;;;;6.07;1.60;;;19.30;90.10;;;;;;4979784;28;20034;-89
2023/03/18 15:13:12;;;;;;;6.47;1.50;;;19.50;90.10;;;;;;4984772;28;20124;-89
2023/03/18 15:15:40;;;;;;;3.45;1.40;;;18.60;89.60;;;;;;4977940;28;20031;-85
2023/03/18 15:18:29;;;;;;;6.78;1.75;;;18.50;89.60;;;;;;4985881;28;20034;-86
2023/03/18 15:21:06;;;;;;;6.30;1.92;;;18.60;90.10;;;;;;4988450;28;20030;-88
2023/03/18 15:23:38;;;;;;;6.40;1.80;;;18.70;89.80;;;;;;4987091;28;20038;-89
2023/03/18 15:26:07;;;;;;;5.60;1.75;;;18.80;89.50;;;;;;4971754;28;20038;-86
2023/03/18 15:28:33;;;;;;;2.92;1.65;;;18.90;89.20;;;;;;4987662;28;20034;-89
2023/03/18 15:31:00;;;;;;;5.65;2.20;;;18.80;89.80;;;;;;4981989;28;20030;-89
2023/03/18 15:33:34;;;;;;;5.57;1.80;;;18.90;89.50;;;;;;4986015;28;20034;-89
2023/03/18 15:36:12;;;;;;;5.18;1.90;;;18.80;88.40;;;;;;4967135;28;20045;-89
2023/03/18 15:38:48;;;;;;;3.92;1.63;;;18.70;89.10;;;;;;4982552;28;20046;-90
2023/03/18 15:41:16;;;;;;;4.60;1.60;;;18.50;90.00;;;;;;4986696;28;20034;-88
2023/03/18 15:43:44;;;;;;;6.93;1.60;;;18.30;90.10;;;;;;4988386;28;20215;-87
2023/03/18 15:46:21;;;;;;;3.80;1.58;;;18.30;90.30;;;;;;4991282;28;20879;-87
2023/03/18 15:48:54;;;;;;;5.85;1.50;;;18.10;90.40;;;;;;4986179;28;20026;-89
2023/03/18 15:51:32;;;;;;;4.55;2.05;;;17.90;90.40;;;;;;4987028;28;20034;-89
2023/03/18 15:54:13;;;;;;;3.72;1.52;;;17.70;90.80;;;;;;4991825;28;20050;-89
2023/03/18 15:56:45;;;;;;;4.38;1.67;;;17.80;91.10;;;;;;4995889;28;20036;-88
2023/03/18 15:59:18;;;;;;;4.50;1.80;;;17.60;91.40;;;;;;4986125;28;20056;-88
2023/03/18 16:01:46;;;;;;;5.63;1.92;;;17.50;91.60;;;;;;4990874;28;20022;-89
2023/03/18 16:04:15;;;;;;;4.53;1.77;;;17.40;91.70;;;;;;4992181;28;20065;-89
2023/03/18 16:06:41;;;;;;;5.82;2.08;;;17.40;92.00;;;;;;4992294;28;20162;-90
2023/03/18 16:09:26;;;;;;;6.50;2.05;;;17.30;92.20;;;;;;4987209;28;20093;-88